Time;durP1;ratioP1;P1;durP2;ratioP2;P2;SDS_P1;SDS_P2;PMS_P1;PMS_P2;Temp;Humidity;BMP_temperature;BMP_pressure;BME280_temperature;BME280_humidity;BME280_pressure;Samples;Min_cycle;Max_cycle;Signal;HPM_P1;HPM_P2
2022/08/09 00:02:09;;;;;;;5.07;2.13;;;20.70;84.70;;;;;;6059158;23;20030;-75
2022/08/09 00:04:36;;;;;;;5.88;2.10;;;20.70;84.80;;;;;;6061197;23;20054;-75
2022/08/09 00:07:05;;;;;;;6.88;2.08;;;20.70;85.00;;;;;;6060597;23;20049;-75
2022/08/09 00:09:32;;;;;;;8.02;2.00;;;20.60;85.00;;;;;;6060413;23;20092;-76
2022/08/09 00:11:59;;;;;;;5.38;1.90;;;20.60;85.30;;;;;;6060772;23;20106;-75
2022/08/09 00:14:26;;;;;;;9.50;2.33;;;20.60;85.30;;;;;;6060771;23;20516;-75
2022/08/09 00:16:53;;;;;;;5.75;2.47;;;20.60;85.50;;;;;;6060315;23;20683;-76
2022/08/09 00:19:20;;;;;;;5.38;2.17;;;20.60;85.70;;;;;;6060803;23;20023;-75
2022/08/09 00:21:47;;;;;;;7.88;2.30;;;20.60;85.60;;;;;;6060525;23;20023;-75
2022/08/09 00:24:16;;;;;;;7.50;2.10;;;20.50;85.80;;;;;;6060641;23;20108;-75
2022/08/09 00:26:42;;;;;;;6.97;2.13;;;20.50;85.80;;;;;;6060491;23;20026;-75
2022/08/09 00:29:09;;;;;;;7.00;2.17;;;20.50;85.90;;;;;;6060489;23;20098;-75
2022/08/09 00:31:36;;;;;;;6.38;1.83;;;20.50;85.90;;;;;;6060351;23;20458;-74
2022/08/09 00:34:03;;;;;;;4.88;2.17;;;20.50;86.10;;;;;;6061039;23;20054;-75
2022/08/09 00:36:30;;;;;;;5.68;2.42;;;20.50;86.20;;;;;;6060572;23;20038;-76
2022/08/09 00:38:58;;;;;;;7.72;2.00;;;20.50;86.20;;;;;;6060082;23;20039;-75
2022/08/09 00:41:26;;;;;;;6.85;2.33;;;20.50;86.30;;;;;;6060944;23;20022;-75
2022/08/09 00:43:53;;;;;;;5.30;2.10;;;20.40;86.40;;;;;;6061047;23;20405;-75
2022/08/09 00:46:20;;;;;;;7.03;2.30;;;20.40;86.40;;;;;;6060301;23;20061;-75
2022/08/09 00:48:47;;;;;;;5.03;2.10;;;20.40;86.50;;;;;;6057930;23;20030;-75
2022/08/09 00:51:16;;;;;;;5.82;2.45;;;20.40;86.70;;;;;;6058913;23;20074;-75
2022/08/09 00:53:43;;;;;;;6.82;1.80;;;20.30;86.70;;;;;;6060660;23;20023;-75
2022/08/09 00:56:10;;;;;;;5.50;2.50;;;20.30;86.90;;;;;;6059042;23;20118;-76
2022/08/09 00:58:38;;;;;;;5.50;2.30;;;20.30;87.00;;;;;;6060751;23;20089;-75
2022/08/09 01:01:12;;;;;;;6.80;2.15;;;20.30;87.00;;;;;;6059940;23;20061;-75
2022/08/09 01:03:45;;;;;;;5.07;2.38;;;20.30;87.20;;;;;;6060403;23;20030;-75
2022/08/09 01:06:18;;;;;;;8.80;2.22;;;20.30;87.30;;;;;;6060991;23;20023;-75
2022/08/09 01:08:51;;;;;;;7.18;2.55;;;20.30;87.40;;;;;;6060763;23;20361;-75
2022/08/09 01:11:24;;;;;;;7.28;2.45;;;20.30;87.90;;;;;;6060821;23;20023;-75
2022/08/09 01:14:00;;;;;;;6.88;2.35;;;20.30;88.00;;;;;;6059177;23;20054;-75
2022/08/09 01:16:29;;;;;;;4.80;2.28;;;20.30;88.00;;;;;;6059538;23;20157;-76
2022/08/09 01:19:01;;;;;;;6.97;2.85;;;20.20;88.10;;;;;;6059932;23;20027;-76
2022/08/09 01:21:42;;;;;;;9.32;2.90;;;20.20;88.10;;;;;;6060667;23;20030;-76
2022/08/09 01:24:16;;;;;;;5.93;2.20;;;20.20;88.30;;;;;;6060886;23;20094;-75
2022/08/09 01:27:01;;;;;;;5.43;2.35;;;20.20;88.30;;;;;;6060226;23;20065;-75
2022/08/09 01:29:31;;;;;;;6.07;2.55;;;20.20;88.60;;;;;;6056301;23;20026;-75
2022/08/09 01:32:02;;;;;;;5.63;2.20;;;20.10;88.60;;;;;;6082715;23;20022;-75
2022/08/09 01:34:30;;;;;;;15.65;2.70;;;20.10;88.80;;;;;;6060757;23;20023;-75
2022/08/09 01:36:59;;;;;;;8.38;2.60;;;20.10;88.90;;;;;;6060406;23;20018;-76
2022/08/09 01:39:27;;;;;;;7.97;2.55;;;20.10;88.90;;;;;;6059637;23;20023;-75
2022/08/09 01:41:56;;;;;;;6.00;2.33;;;20.10;89.00;;;;;;6058776;23;20118;-75
2022/08/09 01:44:24;;;;;;;4.20;2.30;;;20.00;89.00;;;;;;6060541;23;20047;-75
2022/08/09 01:46:52;;;;;;;7.63;2.53;;;20.00;89.00;;;;;;6060064;23;20082;-76
2022/08/09 01:49:21;;;;;;;6.60;2.55;;;20.10;89.20;;;;;;6060406;23;20022;-75
2022/08/09 01:51:51;;;;;;;6.57;2.50;;;20.00;89.20;;;;;;6060506;23;20045;-75
2022/08/09 01:54:20;;;;;;;4.75;2.42;;;20.00;89.30;;;;;;6060878;23;20070;-75
2022/08/09 01:56:48;;;;;;;6.38;2.40;;;20.00;89.60;;;;;;6060652;23;20025;-75
2022/08/09 01:59:19;;;;;;;7.78;2.70;;;19.90;89.70;;;;;;6059804;23;20031;-75
2022/08/09 02:01:50;;;;;;;6.13;2.77;;;20.00;89.80;;;;;;6059761;23;20029;-75
2022/08/09 02:04:18;;;;;;;9.18;2.88;;;19.90;89.90;;;;;;6060450;23;20050;-75
2022/08/09 02:09:33;;;;;;;7.05;2.55;;;19.90;90.10;;;;;;6059978;23;20116;-76
2022/08/09 02:12:01;;;;;;;5.82;3.00;;;19.90;90.10;;;;;;6060616;23;20073;-75
2022/08/09 02:14:29;;;;;;;7.00;2.50;;;19.90;90.30;;;;;;6059804;23;20509;-75
2022/08/09 02:16:58;;;;;;;4.53;2.60;;;19.80;90.40;;;;;;6059677;23;20022;-75
2022/08/09 02:19:25;;;;;;;6.22;2.70;;;19.80;90.50;;;;;;6058413;23;20055;-75
2022/08/09 02:21:55;;;;;;;6.47;2.75;;;19.80;90.70;;;;;;6060843;23;20412;-75
2022/08/09 02:24:25;;;;;;;8.60;2.92;;;19.80;90.90;;;;;;6060458;23;20018;-75
2022/08/09 02:26:55;;;;;;;10.07;3.10;;;19.80;91.10;;;;;;6060688;23;20015;-75
2022/08/09 02:29:25;;;;;;;5.13;2.73;;;19.70;91.10;;;;;;6058879;22;20023;-85
2022/08/09 02:31:54;;;;;;;6.93;2.97;;;19.70;91.40;;;;;;6059440;23;20247;-85
2022/08/09 02:34:27;;;;;;;7.50;2.60;;;19.70;91.40;;;;;;6060231;23;20048;-85
2022/08/09 02:36:56;;;;;;;5.20;2.75;;;19.70;91.40;;;;;;6060212;23;20054;-85
2022/08/09 02:39:25;;;;;;;6.47;2.75;;;19.70;91.70;;;;;;6059746;23;20069;-85
2022/08/09 02:41:56;;;;;;;7.97;3.17;;;19.70;91.80;;;;;;6060192;23;20019;-85
2022/08/09 02:44:26;;;;;;;4.32;2.30;;;19.70;91.90;;;;;;6060364;23;20671;-85
2022/08/09 02:46:55;;;;;;;6.40;2.88;;;19.70;92.00;;;;;;6058987;23;20054;-86
2022/08/09 02:49:23;;;;;;;8.00;2.95;;;19.60;92.20;;;;;;6060356;23;20590;-85
2022/08/09 02:51:54;;;;;;;6.47;3.30;;;19.60;92.30;;;;;;6059695;23;20054;-85
2022/08/09 02:54:21;;;;;;;6.65;3.35;;;19.60;92.40;;;;;;6062065;23;20027;-85
2022/08/09 02:56:49;;;;;;;5.72;2.83;;;19.50;92.40;;;;;;6061468;23;20409;-85
2022/08/09 02:59:16;;;;;;;8.57;2.80;;;19.50;92.70;;;;;;6061243;23;20508;-85
2022/08/09 03:01:44;;;;;;;6.22;2.80;;;19.50;92.70;;;;;;6060910;23;20022;-86
2022/08/09 03:04:13;;;;;;;5.78;3.08;;;19.50;92.80;;;;;;6060981;23;20402;-86
2022/08/09 03:06:43;;;;;;;6.40;2.67;;;19.50;92.90;;;;;;6060651;23;20797;-86
2022/08/09 03:09:10;;;;;;;5.80;3.00;;;19.50;93.00;;;;;;6061039;23;20049;-85
2022/08/09 03:11:38;;;;;;;11.05;3.25;;;19.50;93.20;;;;;;6061289;23;20054;-86
2022/08/09 03:14:05;;;;;;;8.48;3.05;;;19.50;93.30;;;;;;6061231;23;20098;-86
2022/08/09 03:16:33;;;;;;;7.13;2.95;;;19.50;93.30;;;;;;6060717;23;20082;-85
2022/08/09 03:19:00;;;;;;;5.85;2.88;;;19.50;93.50;;;;;;6060061;23;20022;-85
2022/08/09 03:21:27;;;;;;;5.90;3.30;;;19.40;93.40;;;;;;6061173;23;20487;-86
2022/08/09 03:23:56;;;;;;;6.28;3.03;;;19.40;93.60;;;;;;6061350;23;20023;-86
2022/08/09 03:26:23;;;;;;;11.55;3.15;;;19.40;93.80;;;;;;6061344;23;20412;-85
2022/08/09 03:28:50;;;;;;;7.10;3.05;;;19.40;93.90;;;;;;6061210;23;20098;-86
2022/08/09 03:31:18;;;;;;;6.90;3.20;;;19.40;94.10;;;;;;6060447;23;20025;-85
2022/08/09 03:33:44;;;;;;;6.38;2.88;;;19.40;94.20;;;;;;6061448;23;20022;-86
2022/08/09 03:36:11;;;;;;;7.45;3.20;;;19.40;94.30;;;;;;6060930;23;20023;-86
2022/08/09 03:38:40;;;;;;;5.40;3.30;;;19.40;94.30;;;;;;6061274;23;20045;-86
2022/08/09 03:41:08;;;;;;;5.70;3.28;;;19.30;94.40;;;;;;6060884;23;20441;-86
2022/08/09 03:43:36;;;;;;;7.05;3.45;;;19.30;94.60;;;;;;6061529;23;20050;-86
2022/08/09 03:46:03;;;;;;;7.10;3.50;;;19.30;94.60;;;;;;6060596;23;20019;-86
2022/08/09 03:48:30;;;;;;;7.22;3.15;;;19.30;94.70;;;;;;6059499;23;20361;-86
2022/08/09 03:50:57;;;;;;;7.78;3.63;;;19.30;94.70;;;;;;6060366;23;20054;-86
2022/08/09 03:53:25;;;;;;;8.00;3.78;;;19.30;95.00;;;;;;6060971;23;20061;-86
2022/08/09 03:55:53;;;;;;;6.25;3.60;;;19.30;95.10;;;;;;6061164;23;20023;-86
2022/08/09 03:58:21;;;;;;;9.13;3.88;;;19.20;95.10;;;;;;6061370;23;20018;-86
2022/08/09 04:00:49;;;;;;;7.82;4.00;;;19.20;95.10;;;;;;6059571;23;20460;-86
2022/08/09 04:03:16;;;;;;;8.52;3.75;;;19.20;95.20;;;;;;6061396;23;20047;-86
2022/08/09 04:05:43;;;;;;;9.18;3.75;;;19.20;95.30;;;;;;6061020;23;20029;-86
2022/08/09 04:08:10;;;;;;;9.77;3.95;;;19.20;95.40;;;;;;6060442;23;20093;-86
2022/08/09 04:10:37;;;;;;;6.22;3.28;;;19.20;95.50;;;;;;6060279;23;20451;-86
2022/08/09 04:13:08;;;;;;;9.95;3.92;;;19.20;95.60;;;;;;6060950;23;20023;-86
2022/08/09 04:15:37;;;;;;;5.70;3.75;;;19.10;95.80;;;;;;6059068;23;20027;-86
2022/08/09 04:18:05;;;;;;;7.50;4.32;;;19.10;95.80;;;;;;6060834;23;20114;-86
2022/08/09 04:20:32;;;;;;;10.02;4.15;;;19.10;96.10;;;;;;6060276;23;20401;-85
2022/08/09 04:22:59;;;;;;;8.38;3.75;;;19.10;96.30;;;;;;6060921;23;20353;-83
2022/08/09 04:25:26;;;;;;;7.22;4.05;;;19.00;96.30;;;;;;6060907;23;20373;-84
2022/08/09 04:27:54;;;;;;;6.00;3.70;;;19.00;96.40;;;;;;6060625;23;20541;-89
2022/08/09 04:30:21;;;;;;;7.53;3.67;;;19.00;96.50;;;;;;6060490;23;20081;-93
2022/08/09 04:32:50;;;;;;;10.90;4.00;;;19.00;96.60;;;;;;6060559;23;20130;-90
2022/08/09 04:35:17;;;;;;;8.68;3.90;;;19.00;96.70;;;;;;6061007;23;20023;-91
2022/08/09 04:37:44;;;;;;;10.20;4.40;;;19.00;96.70;;;;;;6061188;23;20034;-90
2022/08/09 04:40:12;;;;;;;10.63;4.15;;;19.00;96.80;;;;;;6060644;23;20459;-91
2022/08/09 04:42:39;;;;;;;7.88;3.95;;;19.00;96.90;;;;;;6061029;23;20022;-92
2022/08/09 04:45:07;;;;;;;8.07;4.03;;;19.00;97.10;;;;;;6061006;23;20046;-90
2022/08/09 04:47:34;;;;;;;9.65;4.05;;;18.90;97.40;;;;;;6059698;23;20073;-90
2022/08/09 04:50:03;;;;;;;9.23;4.90;;;18.90;97.60;;;;;;6060932;23;20748;-92
2022/08/09 04:52:30;;;;;;;9.73;4.68;;;18.90;97.50;;;;;;6060825;23;20353;-91
2022/08/09 04:54:59;;;;;;;9.82;4.30;;;18.90;97.40;;;;;;6061165;23;20027;-91
2022/08/09 04:57:27;;;;;;;11.70;4.70;;;19.00;97.40;;;;;;6060818;23;20319;-91
2022/08/09 04:59:55;;;;;;;9.60;4.60;;;19.00;97.40;;;;;;6060690;23;20388;-90
2022/08/09 05:02:22;;;;;;;11.60;5.20;;;19.00;97.50;;;;;;6060440;23;20023;-91
2022/08/09 05:04:49;;;;;;;9.15;4.35;;;19.00;97.60;;;;;;6060446;23;20023;-91
2022/08/09 05:07:18;;;;;;;8.15;4.38;;;19.00;97.80;;;;;;6059317;23;20023;-90
2022/08/09 05:09:45;;;;;;;8.38;4.50;;;19.00;97.80;;;;;;6060618;23;20038;-94
2022/08/09 05:12:12;;;;;;;8.20;4.20;;;19.00;97.70;;;;;;6061838;23;20133;-91
2022/08/09 05:14:39;;;;;;;7.10;4.45;;;19.00;97.70;;;;;;6060978;23;20441;-91
2022/08/09 05:17:06;;;;;;;9.15;4.85;;;19.10;97.80;;;;;;6060880;23;20026;-91
2022/08/09 05:19:33;;;;;;;7.75;4.93;;;19.10;97.80;;;;;;6060657;23;20070;-92
2022/08/09 05:22:00;;;;;;;9.07;4.90;;;19.10;97.80;;;;;;6060888;23;20015;-92
2022/08/09 05:24:29;;;;;;;9.30;5.50;;;19.10;97.90;;;;;;6061114;23;20098;-92
2022/08/09 05:26:56;;;;;;;10.15;5.07;;;19.20;97.90;;;;;;6060674;23;20106;-91
2022/08/09 05:29:23;;;;;;;9.82;5.80;;;19.10;97.90;;;;;;6058264;23;20123;-92
2022/08/09 05:31:50;;;;;;;11.48;5.40;;;19.10;98.10;;;;;;6058396;23;20026;-92
2022/08/09 05:34:18;;;;;;;9.43;4.95;;;19.10;98.20;;;;;;6060737;23;20096;-92
2022/08/09 05:36:45;;;;;;;7.80;4.75;;;19.20;98.20;;;;;;6058986;23;20373;-85
2022/08/09 05:39:12;;;;;;;8.80;4.85;;;19.20;98.20;;;;;;6059868;23;20057;-83
2022/08/09 05:41:40;;;;;;;9.07;5.10;;;19.30;98.10;;;;;;6060700;23;20045;-84
2022/08/09 05:44:07;;;;;;;9.45;5.60;;;19.30;97.90;;;;;;6060656;23;20033;-84
2022/08/09 05:46:34;;;;;;;10.00;4.68;;;19.30;97.80;;;;;;6059780;23;20474;-83
2022/08/09 05:49:01;;;;;;;14.30;6.20;;;19.40;97.70;;;;;;6059004;23;20093;-87
2022/08/09 05:51:28;;;;;;;9.52;5.35;;;19.40;97.70;;;;;;6060572;23;20027;-86
2022/08/09 05:53:55;;;;;;;10.27;5.30;;;19.40;97.50;;;;;;6060629;23;20073;-86
2022/08/09 05:56:22;;;;;;;12.38;5.97;;;19.40;97.60;;;;;;6059323;23;20042;-87
2022/08/09 05:58:56;;;;;;;11.02;5.90;;;19.40;97.40;;;;;;6060524;23;20045;-88
2022/08/09 06:01:23;;;;;;;9.15;5.22;;;19.50;97.50;;;;;;6058814;23;20607;-87
2022/08/09 06:03:50;;;;;;;11.27;5.65;;;19.50;97.70;;;;;;6058956;23;20450;-88
2022/08/09 06:06:17;;;;;;;14.13;5.57;;;19.50;97.50;;;;;;6059703;23;20053;-88
2022/08/09 06:08:44;;;;;;;11.60;5.45;;;19.60;97.40;;;;;;6058576;23;20393;-88
2022/08/09 06:11:11;;;;;;;12.25;4.88;;;19.60;97.30;;;;;;6057787;23;20109;-88
2022/08/09 06:13:38;;;;;;;9.55;5.53;;;19.70;97.30;;;;;;6059922;23;20049;-88
2022/08/09 06:16:07;;;;;;;8.57;4.68;;;19.70;97.30;;;;;;6059958;23;20098;-88
2022/08/09 06:18:35;;;;;;;11.23;5.75;;;19.80;97.00;;;;;;6060187;23;20073;-88
2022/08/09 06:21:02;;;;;;;11.65;5.68;;;19.90;97.10;;;;;;6059642;23;20454;-88
2022/08/09 06:23:31;;;;;;;8.82;5.32;;;19.90;97.00;;;;;;6059383;23;20046;-88
2022/08/09 06:25:58;;;;;;;8.65;5.30;;;20.00;96.40;;;;;;6060108;23;20050;-88
2022/08/09 06:28:25;;;;;;;10.52;5.25;;;20.10;96.10;;;;;;6082986;23;20033;-89
2022/08/09 06:30:52;;;;;;;10.75;5.65;;;20.10;95.90;;;;;;6057688;23;20457;-88
2022/08/09 06:33:20;;;;;;;7.90;4.53;;;20.20;95.60;;;;;;6058520;23;20544;-89
2022/08/09 06:35:47;;;;;;;12.15;4.97;;;20.30;95.40;;;;;;6059746;23;20045;-88
2022/08/09 06:38:14;;;;;;;12.55;5.82;;;20.30;95.20;;;;;;6060139;23;20097;-89
2022/08/09 06:40:41;;;;;;;13.52;5.00;;;20.40;95.20;;;;;;6060075;23;20397;-89
2022/08/09 06:43:08;;;;;;;8.48;4.78;;;20.50;95.20;;;;;;6059620;23;20027;-89
2022/08/09 06:45:35;;;;;;;11.57;4.60;;;20.50;95.20;;;;;;6059626;23;20061;-89
2022/08/09 06:48:02;;;;;;;10.15;5.15;;;20.60;95.40;;;;;;6058073;23;20046;-88
2022/08/09 06:50:30;;;;;;;11.80;4.32;;;20.70;95.30;;;;;;6059650;23;20402;-89
2022/08/09 06:52:59;;;;;;;8.20;4.28;;;20.70;95.30;;;;;;6059355;23;20031;-89
2022/08/09 06:55:30;;;;;;;11.20;4.75;;;20.80;94.90;;;;;;6059882;23;20093;-89
2022/08/09 06:57:57;;;;;;;6.80;4.25;;;20.80;94.60;;;;;;6059785;23;20026;-89
2022/08/09 07:00:24;;;;;;;9.30;5.03;;;20.90;95.60;;;;;;6059097;23;20058;-89
2022/08/09 07:02:51;;;;;;;11.50;4.95;;;20.90;94.30;;;;;;6057536;23;20026;-89
2022/08/09 07:05:18;;;;;;;8.80;4.82;;;20.90;94.20;;;;;;6058665;23;20031;-83
2022/08/09 07:07:47;;;;;;;8.02;4.75;;;21.00;93.80;;;;;;6059140;23;20078;-85
2022/08/09 07:10:14;;;;;;;11.95;5.05;;;21.00;93.60;;;;;;6059235;23;20023;-84
2022/08/09 07:12:41;;;;;;;10.82;5.25;;;21.00;93.60;;;;;;6059079;23;20093;-83
2022/08/09 07:15:09;;;;;;;7.68;4.55;;;21.00;93.40;;;;;;6059724;23;20445;-82
2022/08/09 07:17:36;;;;;;;13.98;5.60;;;21.00;93.50;;;;;;6059633;23;20023;-86
2022/08/09 07:20:03;;;;;;;10.52;4.43;;;21.10;93.50;;;;;;6058104;23;20019;-88
2022/08/09 07:22:30;;;;;;;12.35;5.00;;;21.10;93.50;;;;;;6058070;23;20527;-88
2022/08/09 07:24:58;;;;;;;9.93;4.88;;;21.10;93.70;;;;;;6058084;23;20082;-88
2022/08/09 07:27:26;;;;;;;9.88;4.40;;;21.10;93.60;;;;;;6059211;23;20084;-88
2022/08/09 07:29:53;;;;;;;11.95;5.30;;;21.10;93.80;;;;;;6057695;23;20023;-85
2022/08/09 07:32:20;;;;;;;11.13;4.53;;;21.10;93.40;;;;;;6058552;23;20019;-88
2022/08/09 07:34:47;;;;;;;7.78;4.47;;;21.20;93.00;;;;;;6058997;23;20121;-87
2022/08/09 07:37:14;;;;;;;10.80;4.00;;;21.20;93.30;;;;;;6058816;23;20038;-88
2022/08/09 07:39:41;;;;;;;8.77;4.03;;;21.20;93.20;;;;;;6060469;23;20106;-88
2022/08/09 07:42:10;;;;;;;13.80;4.75;;;21.30;93.20;;;;;;6060353;23;20057;-88
2022/08/09 07:44:37;;;;;;;7.43;4.22;;;21.30;92.80;;;;;;6060549;23;20094;-87
2022/08/09 07:47:04;;;;;;;10.60;4.18;;;21.40;92.80;;;;;;6058571;23;20027;-87
2022/08/09 07:49:31;;;;;;;10.05;4.35;;;21.40;92.80;;;;;;6082574;23;20073;-87
2022/08/09 07:51:58;;;;;;;9.07;4.13;;;21.40;93.10;;;;;;6060252;23;20046;-87
2022/08/09 07:54:27;;;;;;;9.05;4.60;;;21.50;93.30;;;;;;6059970;23;20054;-87
2022/08/09 07:56:53;;;;;;;12.05;4.38;;;21.50;92.20;;;;;;6060448;23;20031;-87
2022/08/09 07:59:22;;;;;;;9.30;4.18;;;21.60;92.40;;;;;;6058474;23;20066;-87
2022/08/09 08:01:49;;;;;;;9.30;5.10;;;21.60;92.70;;;;;;6059058;23;20054;-87
2022/08/09 08:04:16;;;;;;;7.10;4.05;;;21.60;91.70;;;;;;6059774;23;20077;-88
2022/08/09 08:06:43;;;;;;;10.30;4.95;;;21.60;91.50;;;;;;6060092;23;20034;-85
2022/08/09 08:09:10;;;;;;;8.45;4.65;;;21.70;91.20;;;;;;6059939;23;20033;-89
2022/08/09 08:11:37;;;;;;;7.82;4.20;;;21.70;90.80;;;;;;6058954;23;20047;-90
2022/08/09 08:14:04;;;;;;;11.30;4.50;;;21.70;91.30;;;;;;6058858;23;20667;-90
2022/08/09 08:16:32;;;;;;;7.82;3.80;;;21.70;91.10;;;;;;6059349;23;20019;-88
2022/08/09 08:19:00;;;;;;;7.78;3.90;;;21.70;91.20;;;;;;6060197;23;20022;-89
2022/08/09 08:21:27;;;;;;;11.45;4.60;;;21.80;91.20;;;;;;6083156;23;20354;-86
2022/08/09 08:23:54;;;;;;;6.88;3.92;;;21.80;91.40;;;;;;6059787;23;20077;-84
2022/08/09 08:26:21;;;;;;;9.60;4.38;;;21.90;91.60;;;;;;6060386;23;20023;-88
2022/08/09 08:28:48;;;;;;;10.57;4.40;;;22.00;92.90;;;;;;6061566;23;20054;-85
2022/08/09 08:31:15;;;;;;;8.25;4.20;;;22.00;93.10;;;;;;6059157;23;20785;-84
2022/08/09 08:33:44;;;;;;;9.18;4.30;;;22.00;91.40;;;;;;6060221;23;20106;-86
2022/08/09 08:36:11;;;;;;;8.77;4.50;;;22.10;91.60;;;;;;6060971;23;20511;-87
2022/08/09 08:38:38;;;;;;;9.95;4.07;;;22.10;90.10;;;;;;6059886;23;20026;-85
2022/08/09 08:41:05;;;;;;;10.75;4.70;;;22.10;90.00;;;;;;6060613;23;20027;-85
2022/08/09 08:43:33;;;;;;;8.88;4.07;;;22.30;90.20;;;;;;6060013;23;20042;-85
2022/08/09 08:46:03;;;;;;;12.70;4.22;;;22.30;90.30;;;;;;6060117;23;20057;-87
2022/08/09 08:48:30;;;;;;;12.60;4.47;;;22.30;90.10;;;;;;6061255;23;20098;-88
2022/08/09 08:50:59;;;;;;;13.60;4.32;;;22.30;89.30;;;;;;6058824;23;20468;-88
2022/08/09 08:53:26;;;;;;;11.15;3.53;;;22.20;89.00;;;;;;6059725;23;20361;-88
2022/08/09 08:55:53;;;;;;;8.55;4.65;;;22.30;90.60;;;;;;6059039;23;20361;-88
2022/08/09 08:58:21;;;;;;;7.85;3.50;;;22.40;88.70;;;;;;6060264;23;20027;-87
2022/08/09 09:00:48;;;;;;;7.82;3.75;;;22.40;88.80;;;;;;6057549;23;20023;-87
2022/08/09 09:03:16;;;;;;;8.93;3.90;;;22.40;88.00;;;;;;6058732;23;20069;-86
2022/08/09 09:05:44;;;;;;;8.30;4.28;;;22.40;88.60;;;;;;6059058;23;20033;-87
2022/08/09 09:08:15;;;;;;;6.35;3.58;;;22.50;87.50;;;;;;6082497;23;20409;-88
2022/08/09 09:10:42;;;;;;;10.65;3.22;;;22.50;87.00;;;;;;6058243;23;20027;-88
2022/08/09 09:13:10;;;;;;;12.95;3.67;;;22.40;87.20;;;;;;6060315;23;20034;-88
2022/08/09 09:15:38;;;;;;;7.93;3.90;;;22.50;86.80;;;;;;6059887;23;20031;-88
2022/08/09 09:18:05;;;;;;;15.88;3.33;;;22.50;86.80;;;;;;6060213;23;20022;-88
2022/08/09 09:20:34;;;;;;;9.27;3.80;;;22.50;86.00;;;;;;6060224;23;20023;-88
2022/08/09 09:23:01;;;;;;;8.60;4.10;;;22.50;85.50;;;;;;6059534;23;20077;-89
2022/08/09 09:25:39;;;;;;;8.95;3.67;;;22.60;85.80;;;;;;6059074;23;20331;-88
2022/08/09 09:28:06;;;;;;;7.75;3.67;;;22.60;86.20;;;;;;6060431;23;20457;-88
2022/08/09 09:30:34;;;;;;;7.47;2.90;;;22.50;85.00;;;;;;6059510;23;20471;-89
2022/08/09 09:33:06;;;;;;;8.60;2.80;;;22.60;85.50;;;;;;6059675;23;20053;-89
2022/08/09 09:35:33;;;;;;;10.02;3.50;;;22.60;85.60;;;;;;6059460;23;20357;-88
2022/08/09 09:38:00;;;;;;;7.35;3.00;;;22.70;85.80;;;;;;6060174;23;20023;-89
2022/08/09 09:40:44;;;;;;;9.70;3.30;;;22.70;85.90;;;;;;6058595;23;20065;-89
2022/08/09 09:43:18;;;;;;;10.30;3.90;;;22.80;86.00;;;;;;6058718;23;20027;-89
2022/08/09 09:45:50;;;;;;;9.43;3.50;;;22.80;84.20;;;;;;6059823;23;20033;-89
2022/08/09 09:48:17;;;;;;;6.43;3.30;;;22.90;85.10;;;;;;6059619;23;20015;-89
2022/08/09 09:50:45;;;;;;;6.57;3.30;;;22.90;84.90;;;;;;6059483;23;20030;-89
2022/08/09 09:53:16;;;;;;;6.35;3.05;;;23.00;85.30;;;;;;6060583;23;20058;-89
2022/08/09 09:55:56;;;;;;;7.70;3.20;;;23.00;83.40;;;;;;6083546;23;20033;-89
2022/08/09 09:58:23;;;;;;;5.90;3.45;;;23.00;83.20;;;;;;6059591;23;20015;-88
2022/08/09 10:00:51;;;;;;;6.25;3.22;;;23.00;81.80;;;;;;6057857;23;20027;-90
2022/08/09 10:03:23;;;;;;;8.10;2.97;;;23.00;81.20;;;;;;6059704;23;20097;-89
2022/08/09 10:05:57;;;;;;;10.98;3.55;;;23.00;81.20;;;;;;6058168;23;20022;-78
2022/08/09 10:08:24;;;;;;;9.82;3.90;;;23.00;81.30;;;;;;6058340;23;20019;-77
2022/08/09 10:10:51;;;;;;;6.80;2.85;;;23.00;81.60;;;;;;6059176;23;20072;-78
2022/08/09 10:13:19;;;;;;;9.80;3.58;;;23.00;81.50;;;;;;6060277;23;20049;-78
2022/08/09 10:15:48;;;;;;;7.65;3.10;;;23.00;81.00;;;;;;6057483;23;20750;-78
2022/08/09 10:18:15;;;;;;;8.15;3.55;;;23.00;80.90;;;;;;6060209;23;20025;-78
2022/08/09 10:20:42;;;;;;;10.82;3.60;;;23.00;79.80;;;;;;6059561;23;20037;-78
2022/08/09 10:23:21;;;;;;;6.65;3.33;;;23.00;80.00;;;;;;6060275;23;20093;-79
2022/08/09 10:25:49;;;;;;;6.57;3.10;;;23.00;80.40;;;;;;6059951;23;20022;-78
2022/08/09 10:28:16;;;;;;;10.48;3.30;;;23.10;81.60;;;;;;6059321;23;20088;-77
2022/08/09 10:30:45;;;;;;;6.25;2.80;;;23.20;81.20;;;;;;6059025;23;20043;-78
2022/08/09 10:33:12;;;;;;;8.73;3.65;;;23.20;80.40;;;;;;6059670;23;20027;-78
2022/08/09 10:35:39;;;;;;;8.27;3.22;;;23.20;79.50;;;;;;6058040;23;20446;-78
2022/08/09 10:38:06;;;;;;;12.10;2.85;;;23.20;80.10;;;;;;6060426;23;20096;-78
2022/08/09 10:40:34;;;;;;;10.73;3.45;;;23.20;81.30;;;;;;6059720;23;20023;-78
2022/08/09 10:43:01;;;;;;;9.00;3.45;;;23.30;80.00;;;;;;6058967;23;20026;-78
2022/08/09 10:45:29;;;;;;;7.75;3.30;;;23.30;78.50;;;;;;6059450;23;20023;-78
2022/08/09 10:48:03;;;;;;;8.02;3.47;;;23.30;77.40;;;;;;6059628;23;20019;-80
2022/08/09 10:53:44;;;;;;;8.32;2.83;;;23.30;77.70;;;;;;6059155;23;20042;-79
2022/08/09 10:56:16;;;;;;;7.05;3.60;;;23.40;78.30;;;;;;6059768;23;20107;-78
2022/08/09 10:58:44;;;;;;;7.53;3.28;;;23.40;78.30;;;;;;6059625;23;20117;-79
2022/08/09 11:01:41;;;;;;;5.07;3.00;;;23.50;80.00;;;;;;6058946;23;20098;-78
2022/08/09 11:04:17;;;;;;;7.43;3.47;;;23.50;77.60;;;;;;6059796;23;20046;-78
2022/08/09 11:06:44;;;;;;;7.35;3.38;;;23.50;78.00;;;;;;6059006;23;20019;-78
2022/08/09 11:09:15;;;;;;;6.93;3.20;;;23.40;77.10;;;;;;6057336;23;20338;-78
2022/08/09 11:12:11;;;;;;;10.07;3.47;;;23.50;78.60;;;;;;6059046;23;20477;-78
2022/08/09 11:14:40;;;;;;;6.82;2.85;;;23.50;76.60;;;;;;6061558;23;20046;-79
2022/08/09 11:17:51;;;;;;;9.73;3.22;;;23.50;76.70;;;;;;6058913;23;20034;-79
2022/08/09 11:20:38;;;;;;;8.52;2.85;;;23.50;77.30;;;;;;6060877;23;20027;-79
2022/08/09 11:23:05;;;;;;;7.50;3.17;;;23.50;77.10;;;;;;6058837;23;20027;-79
2022/08/09 11:25:44;;;;;;;6.38;3.47;;;23.50;76.00;;;;;;6061301;23;20058;-79
2022/08/09 11:28:38;;;;;;;9.68;3.10;;;23.60;76.50;;;;;;6061099;23;20015;-79
2022/08/09 11:31:39;;;;;;;7.85;3.42;;;23.50;76.40;;;;;;6060834;23;20023;-79
2022/08/09 11:34:10;;;;;;;5.95;3.90;;;23.60;76.70;;;;;;6059647;23;20433;-79
2022/08/09 11:36:42;;;;;;;14.73;4.00;;;23.60;74.90;;;;;;6059011;23;20542;-79
2022/08/09 11:39:09;;;;;;;7.10;3.20;;;23.60;75.50;;;;;;6060582;23;20019;-79
2022/08/09 11:41:36;;;;;;;8.65;3.05;;;23.60;76.60;;;;;;6060744;23;20093;-79
2022/08/09 11:44:03;;;;;;;6.55;2.88;;;23.60;77.20;;;;;;6060634;23;20034;-79
2022/08/09 11:46:52;;;;;;;9.25;3.40;;;23.60;75.70;;;;;;6059573;23;20397;-81
2022/08/09 11:49:20;;;;;;;9.25;3.50;;;23.60;76.70;;;;;;6060813;23;20047;-81
2022/08/09 11:52:10;;;;;;;7.78;3.05;;;23.60;77.30;;;;;;6060697;23;20027;-81
2022/08/09 11:54:37;;;;;;;5.60;3.05;;;23.60;76.60;;;;;;6053820;23;20031;-81
2022/08/09 11:57:38;;;;;;;7.57;3.00;;;23.60;75.40;;;;;;6060997;23;20058;-81
2022/08/09 12:00:08;;;;;;;8.88;3.47;;;23.60;74.20;;;;;;6060357;23;20053;-81
2022/08/09 12:02:38;;;;;;;9.43;3.45;;;23.60;74.60;;;;;;6060571;23;20102;-81
2022/08/09 12:05:06;;;;;;;5.30;3.05;;;23.60;75.50;;;;;;6058880;23;20050;-81
2022/08/09 12:07:40;;;;;;;8.25;3.13;;;23.60;75.30;;;;;;6060966;23;20077;-82
2022/08/09 12:10:09;;;;;;;6.78;3.13;;;23.70;75.80;;;;;;6060651;23;20019;-81
2022/08/09 12:12:45;;;;;;;7.70;3.17;;;23.70;75.40;;;;;;6060031;23;20027;-81
2022/08/09 12:15:22;;;;;;;10.13;3.20;;;23.80;75.70;;;;;;6060684;23;20030;-80
2022/08/09 12:17:49;;;;;;;5.10;3.10;;;23.70;75.10;;;;;;6060911;23;20394;-79
2022/08/09 12:20:18;;;;;;;8.50;2.97;;;23.70;74.80;;;;;;6060800;23;20037;-79
2022/08/09 12:22:46;;;;;;;9.30;3.72;;;23.80;74.50;;;;;;6059560;23;20057;-79
2022/08/09 12:25:16;;;;;;;10.18;3.40;;;23.80;73.60;;;;;;6059263;23;20404;-79
2022/08/09 12:27:43;;;;;;;8.50;3.15;;;23.80;73.90;;;;;;6060349;23;20027;-79
2022/08/09 12:30:10;;;;;;;8.07;3.15;;;23.80;73.90;;;;;;6060330;23;20065;-78
2022/08/09 12:32:37;;;;;;;8.30;3.05;;;23.80;74.40;;;;;;6060191;23;20023;-78
2022/08/09 12:35:06;;;;;;;11.05;3.08;;;23.80;74.00;;;;;;6059257;23;20023;-79
2022/08/09 12:37:35;;;;;;;7.63;3.22;;;23.80;73.00;;;;;;6060545;23;20106;-79
2022/08/09 12:40:06;;;;;;;4.95;2.58;;;23.80;72.50;;;;;;6060196;23;20030;-78
2022/08/09 12:42:34;;;;;;;5.93;3.05;;;23.90;74.00;;;;;;6058355;23;20046;-78
2022/08/09 12:45:03;;;;;;;7.22;3.13;;;23.90;73.40;;;;;;6060624;23;20023;-79
2022/08/09 12:47:30;;;;;;;6.68;2.95;;;23.90;74.10;;;;;;6060577;23;20046;-79
2022/08/09 12:52:46;;;;;;;9.60;3.20;;;23.90;72.20;;;;;;6066580;23;20098;-78
2022/08/09 12:55:25;;;;;;;7.50;3.20;;;23.90;72.60;;;;;;6060827;23;20027;-79
2022/08/09 12:57:52;;;;;;;5.13;2.50;;;23.90;72.70;;;;;;6060619;23;20027;-81
2022/08/09 13:00:21;;;;;;;7.15;3.05;;;24.00;73.60;;;;;;6059959;23;20019;-81
2022/08/09 13:02:50;;;;;;;5.50;2.60;;;24.00;72.80;;;;;;6058556;23;20109;-81
2022/08/09 13:05:17;;;;;;;10.60;2.90;;;24.00;71.30;;;;;;6058753;23;20033;-83